Time;durP1;ratioP1;P1;durP2;ratioP2;P2;SDS_P1;SDS_P2;PMS_P1;PMS_P2;Temp;Humidity;BMP_temperature;BMP_pressure;BME280_temperature;BME280_humidity;BME280_pressure;Samples;Min_cycle;Max_cycle;Signal;HPM_P1;HPM_P2
2023/08/10 00:00:18;;;;;;;2.67;1.80;;;;;17.40;98953.00;;;;5072553;28;20067;-66
2023/08/10 00:02:45;;;;;;;2.28;2.03;;;;;17.40;98959.00;;;;5054447;28;20106;-65
2023/08/10 00:05:12;;;;;;;2.78;2.10;;;;;17.40;98956.00;;;;5038085;28;20394;-65
2023/08/10 00:07:38;;;;;;;7.65;2.33;;;;;17.30;98959.00;;;;5072458;28;20448;-65
2023/08/10 00:10:08;;;;;;;1.92;1.73;;;;;17.30;98954.00;;;;5072306;28;20121;-65
2023/08/10 00:12:36;;;;;;;2.28;2.08;;;;;17.20;98950.00;;;;5054187;28;20053;-65
2023/08/10 00:15:05;;;;;;;4.18;2.20;;;;;17.20;98957.00;;;;5072305;28;20450;-65
2023/08/10 00:17:32;;;;;;;2.60;2.05;;;;;17.10;98949.00;;;;5054382;28;20139;-65
2023/08/10 00:19:59;;;;;;;2.08;1.90;;;;;17.10;98951.00;;;;5071980;28;20049;-65
2023/08/10 00:22:25;;;;;;;4.85;2.65;;;;;17.00;98957.00;;;;5072386;28;20067;-65
2023/08/10 00:24:52;;;;;;;2.20;2.00;;;;;17.00;98961.00;;;;5072107;28;20123;-65
2023/08/10 00:27:19;;;;;;;3.33;2.00;;;;;16.90;98951.00;;;;5060237;28;20127;-66
2023/08/10 00:29:46;;;;;;;2.08;1.70;;;;;16.70;98954.00;;;;5064776;28;20489;-66
2023/08/10 00:32:12;;;;;;;3.67;2.00;;;;;16.70;98952.00;;;;5065539;28;20114;-66
2023/08/10 00:34:42;;;;;;;4.32;2.05;;;;;16.70;98954.00;;;;5064250;28;20547;-66
2023/08/10 00:37:08;;;;;;;5.32;2.30;;;;;16.50;98960.00;;;;5060293;28;20044;-65
2023/08/10 00:39:35;;;;;;;4.32;2.30;;;;;16.40;98954.00;;;;5058436;28;20058;-65
2023/08/10 00:42:02;;;;;;;3.08;2.05;;;;;16.30;98956.00;;;;5058938;28;20044;-64
2023/08/10 00:44:29;;;;;;;2.72;2.17;;;;;16.30;98962.00;;;;5059079;28;20037;-64
2023/08/10 00:46:56;;;;;;;3.38;2.30;;;;;16.30;98967.00;;;;5042167;28;20147;-66
2023/08/10 00:49:22;;;;;;;3.25;2.25;;;;;16.40;98968.00;;;;5058128;28;20076;-66
2023/08/10 00:51:49;;;;;;;3.63;2.00;;;;;16.50;98962.00;;;;5059449;28;20132;-64
2023/08/10 00:54:16;;;;;;;2.75;2.13;;;;;16.50;98962.00;;;;5076907;28;20382;-65
2023/08/10 00:56:42;;;;;;;4.13;2.30;;;;;16.50;98959.00;;;;5058639;28;20048;-65
2023/08/10 00:59:10;;;;;;;3.97;2.10;;;;;16.50;98955.00;;;;5041715;28;20049;-67
2023/08/10 01:01:37;;;;;;;2.65;1.95;;;;;16.30;98956.00;;;;5057765;28;20052;-64
2023/08/10 01:04:04;;;;;;;2.20;2.00;;;;;16.20;98955.00;;;;5075812;28;20041;-64
2023/08/10 01:06:40;;;;;;;2.22;2.03;;;;;16.10;98955.00;;;;5057682;28;20512;-65
2023/08/10 01:09:35;;;;;;;6.35;2.22;;;;;16.20;98958.00;;;;5058008;28;20477;-64
2023/08/10 01:12:17;;;;;;;2.15;1.95;;;;;16.20;98966.00;;;;5057776;28;20048;-64
2023/08/10 01:15:12;;;;;;;4.15;2.30;;;;;16.00;98966.00;;;;5075863;28;20048;-64
2023/08/10 01:17:51;;;;;;;2.38;2.10;;;;;16.00;98960.00;;;;5057839;28;20063;-64
2023/08/10 01:20:20;;;;;;;2.47;1.98;;;;;16.00;98964.00;;;;5059451;28;20072;-64
2023/08/10 01:23:24;;;;;;;5.68;2.25;;;;;15.90;98960.00;;;;5077324;28;20123;-64
2023/08/10 01:25:52;;;;;;;2.08;1.88;;;;;15.90;98961.00;;;;5058540;28;20135;-65
2023/08/10 01:28:18;;;;;;;3.33;2.22;;;;;16.00;98965.00;;;;5076586;28;20119;-64
2023/08/10 01:30:45;;;;;;;5.45;2.22;;;;;16.00;98959.00;;;;5058433;28;20049;-65
2023/08/10 01:33:13;;;;;;;5.43;2.28;;;;;16.00;98959.00;;;;5041996;28;20045;-64
2023/08/10 01:35:39;;;;;;;4.85;2.17;;;;;16.00;98968.00;;;;5058185;28;20048;-65
2023/08/10 01:38:07;;;;;;;4.32;2.38;;;;;16.00;98962.00;;;;5042337;28;20480;-64
2023/08/10 01:40:34;;;;;;;4.35;2.45;;;;;15.80;98958.00;;;;5057955;28;20147;-64
2023/08/10 01:43:02;;;;;;;5.43;2.58;;;;;15.70;98967.00;;;;5058510;28;20041;-64
2023/08/10 01:45:29;;;;;;;2.92;2.20;;;;;15.70;98961.00;;;;5059142;28;20051;-64
2023/08/10 01:48:04;;;;;;;3.92;2.30;;;;;15.60;98956.00;;;;5058775;28;20053;-65
2023/08/10 01:50:34;;;;;;;3.85;2.75;;;;;15.40;98954.00;;;;5076190;28;20033;-64
2023/08/10 01:53:08;;;;;;;3.90;2.03;;;;;15.30;98961.00;;;;5058184;28;20076;-64
2023/08/10 01:55:37;;;;;;;5.03;2.28;;;;;15.20;98966.00;;;;5058692;28;20036;-64
2023/08/10 01:58:04;;;;;;;3.35;2.35;;;;;15.10;98957.00;;;;5042264;28;20045;-64
2023/08/10 02:00:31;;;;;;;3.08;2.17;;;;;15.20;98965.00;;;;5076070;28;20420;-64
2023/08/10 02:02:58;;;;;;;8.25;2.40;;;;;15.20;98964.00;;;;5058686;28;20048;-64
2023/08/10 02:05:25;;;;;;;3.00;2.20;;;;;15.20;98962.00;;;;5076294;28;20040;-64
2023/08/10 02:07:51;;;;;;;4.18;2.20;;;;;15.20;98964.00;;;;5041729;28;20582;-64
2023/08/10 02:10:18;;;;;;;3.05;2.22;;;;;15.20;98961.00;;;;5058144;28;20049;-64
2023/08/10 02:12:45;;;;;;;4.05;2.17;;;;;15.20;98964.00;;;;5075762;28;20064;-64
2023/08/10 02:15:12;;;;;;;5.25;2.28;;;;;15.10;98967.00;;;;5058530;28;20071;-64
2023/08/10 02:17:40;;;;;;;4.97;2.38;;;;;15.00;98974.00;;;;5058774;28;20071;-64
2023/08/10 02:20:13;;;;;;;4.72;2.38;;;;;15.00;98974.00;;;;5061177;28;20044;-64
2023/08/10 02:22:52;;;;;;;3.80;2.42;;;;;15.10;98980.00;;;;5066190;28;20059;-64
2023/08/10 02:25:20;;;;;;;3.42;2.38;;;;;15.20;98971.00;;;;5066895;28;20523;-65
2023/08/10 02:27:47;;;;;;;3.90;2.03;;;;;15.20;98984.00;;;;5067432;28;20041;-64
2023/08/10 02:30:15;;;;;;;3.00;2.20;;;;;15.20;98985.00;;;;5066318;28;20078;-65
2023/08/10 02:32:42;;;;;;;5.80;2.33;;;;;15.20;98983.00;;;;5065390;28;20044;-65
2023/08/10 02:35:09;;;;;;;3.22;2.08;;;;;15.20;98986.00;;;;5083465;28;20513;-65
2023/08/10 02:37:36;;;;;;;5.15;2.20;;;;;15.20;98970.00;;;;5082792;28;20044;-64
2023/08/10 02:40:04;;;;;;;4.93;3.38;;;;;15.30;98975.00;;;;5082807;28;20037;-65
2023/08/10 02:42:31;;;;;;;3.42;2.20;;;;;15.20;98972.00;;;;5065403;28;20567;-65
2023/08/10 02:44:58;;;;;;;4.75;2.30;;;;;15.00;98972.00;;;;5083457;28;20048;-65
2023/08/10 02:47:25;;;;;;;2.42;2.22;;;;;14.90;98968.00;;;;5083139;28;20082;-65
2023/08/10 02:49:52;;;;;;;5.35;2.22;;;;;14.90;98971.00;;;;5082450;28;20106;-66
2023/08/10 02:52:19;;;;;;;2.95;2.22;;;;;14.90;98968.00;;;;5081570;28;20075;-64
2023/08/10 02:54:46;;;;;;;2.58;2.35;;;;;14.90;98957.00;;;;5045894;28;20094;-65
2023/08/10 02:57:12;;;;;;;3.20;2.10;;;;;14.90;98968.00;;;;5063707;28;20115;-64
2023/08/10 02:59:39;;;;;;;5.00;2.00;;;;;14.90;98967.00;;;;5081101;28;20119;-64
2023/08/10 03:02:06;;;;;;;5.50;2.53;;;;;14.90;98971.00;;;;5079764;28;20074;-64
2023/08/10 03:04:33;;;;;;;2.30;1.83;;;;;15.00;98975.00;;;;5041559;28;20055;-64
2023/08/10 03:07:00;;;;;;;3.08;2.60;;;;;15.00;98969.00;;;;5078611;28;20053;-65
2023/08/10 03:09:27;;;;;;;2.75;2.22;;;;;14.90;98972.00;;;;5081280;28;20098;-65
2023/08/10 03:11:54;;;;;;;4.55;2.28;;;;;14.80;98967.00;;;;5058541;28;20566;-65
2023/08/10 03:14:22;;;;;;;2.45;2.03;;;;;14.70;98970.00;;;;5044872;28;20044;-66
2023/08/10 03:16:49;;;;;;;6.05;2.55;;;;;14.50;98969.00;;;;5064740;28;20163;-64
2023/08/10 03:19:16;;;;;;;6.50;2.70;;;;;14.40;98974.00;;;;5056755;28;20059;-64
2023/08/10 03:21:44;;;;;;;4.45;3.72;;;;;14.50;98974.00;;;;5056237;28;20070;-65
2023/08/10 03:24:11;;;;;;;3.88;2.00;;;;;14.50;98978.00;;;;5063020;28;20049;-64
2023/08/10 03:26:37;;;;;;;2.63;2.22;;;;;14.50;98973.00;;;;5060624;28;20044;-64
2023/08/10 03:29:04;;;;;;;5.80;2.35;;;;;14.50;98968.00;;;;5042651;28;20470;-63
2023/08/10 03:31:31;;;;;;;3.08;2.33;;;;;14.50;98971.00;;;;5062337;28;20052;-64
2023/08/10 03:33:58;;;;;;;3.90;2.25;;;;;14.40;98968.00;;;;5075948;28;20047;-63
2023/08/10 03:36:25;;;;;;;3.22;2.30;;;;;14.30;98975.00;;;;5075087;28;20055;-64
2023/08/10 03:38:51;;;;;;;3.30;2.22;;;;;14.20;98972.00;;;;5060518;28;20047;-65
2023/08/10 03:41:18;;;;;;;3.10;2.42;;;;;14.20;98968.00;;;;5062156;28;20048;-65
2023/08/10 03:43:46;;;;;;;3.13;2.40;;;;;14.10;98966.00;;;;5061120;28;20045;-65
2023/08/10 03:46:12;;;;;;;3.03;2.20;;;;;14.10;98960.00;;;;5079342;28;20033;-66
2023/08/10 03:48:39;;;;;;;4.35;2.50;;;;;14.00;98973.00;;;;5044767;28;20429;-65
2023/08/10 03:51:05;;;;;;;2.88;2.33;;;;;14.00;98965.00;;;;5079094;28;20462;-64
2023/08/10 03:53:32;;;;;;;3.42;2.20;;;;;14.00;98960.00;;;;5079987;28;20036;-64
2023/08/10 03:55:59;;;;;;;7.00;3.85;;;;;14.00;98965.00;;;;5061280;28;20055;-64
2023/08/10 03:58:25;;;;;;;4.72;2.60;;;;;14.00;98968.00;;;;5045033;28;20076;-65
2023/08/10 04:00:52;;;;;;;2.97;2.15;;;;;14.10;98966.00;;;;5061433;28;20044;-65
2023/08/10 04:03:20;;;;;;;4.22;2.60;;;;;14.10;98968.00;;;;5045738;28;20056;-65
2023/08/10 04:05:47;;;;;;;4.15;2.38;;;;;14.10;98980.00;;;;5064456;28;20047;-64
2023/08/10 04:08:13;;;;;;;5.55;2.58;;;;;14.10;98976.00;;;;5063045;28;20087;-64
2023/08/10 04:10:40;;;;;;;3.45;2.47;;;;;14.10;98978.00;;;;5063084;28;20068;-65
2023/08/10 04:13:06;;;;;;;3.67;2.35;;;;;14.10;98984.00;;;;5081158;28;20040;-66
2023/08/10 04:15:33;;;;;;;13.02;7.07;;;;;14.10;98988.00;;;;5081725;28;20469;-65
2023/08/10 04:17:59;;;;;;;29.85;19.98;;;;;14.10;98994.00;;;;5063331;28;20113;-65
2023/08/10 04:20:26;;;;;;;6.93;3.25;;;;;14.00;98995.00;;;;5063984;28;20050;-66
2023/08/10 04:22:54;;;;;;;6.35;2.92;;;;;14.00;98995.00;;;;5064536;28;20108;-65
2023/08/10 04:25:20;;;;;;;4.88;2.60;;;;;13.90;98993.00;;;;5082578;28;20056;-66
2023/08/10 04:27:47;;;;;;;2.78;2.13;;;;;13.80;98991.00;;;;5078678;28;20052;-64
2023/08/10 04:30:14;;;;;;;3.53;2.45;;;;;13.80;98995.00;;;;5061609;28;20523;-65
2023/08/10 04:32:40;;;;;;;7.07;2.58;;;;;13.90;98996.00;;;;5082111;28;20048;-65
2023/08/10 04:35:11;;;;;;;4.38;2.92;;;;;14.00;99003.00;;;;5063896;28;20068;-64
2023/08/10 04:37:38;;;;;;;4.47;2.75;;;;;14.10;99003.00;;;;5063846;28;20068;-65
2023/08/10 04:40:09;;;;;;;2.92;2.63;;;;;14.20;99013.00;;;;5081349;28;20068;-65
2023/08/10 04:42:38;;;;;;;4.50;2.40;;;;;14.20;99007.00;;;;5081841;28;20101;-64
2023/08/10 04:45:06;;;;;;;3.17;2.60;;;;;14.20;99011.00;;;;5081735;28;20493;-64
2023/08/10 04:47:32;;;;;;;3.63;2.88;;;;;14.20;99008.00;;;;5081175;28;20482;-64
2023/08/10 04:49:59;;;;;;;7.15;3.35;;;;;14.00;99016.00;;;;5060630;28;20043;-65
2023/08/10 04:52:26;;;;;;;4.47;2.80;;;;;14.00;99020.00;;;;5079989;28;20060;-65
2023/08/10 04:54:52;;;;;;;8.38;5.00;;;;;14.00;99022.00;;;;5079910;28;20108;-65
2023/08/10 04:57:19;;;;;;;3.17;2.47;;;;;14.00;99022.00;;;;5080173;28;20051;-65
2023/08/10 04:59:46;;;;;;;8.13;4.22;;;;;13.90;99016.00;;;;5079887;28;20044;-65
2023/08/10 05:02:13;;;;;;;3.55;2.40;;;;;13.90;99022.00;;;;5061917;28;20144;-64
2023/08/10 05:04:39;;;;;;;4.72;2.90;;;;;13.90;99013.00;;;;5061713;28;20063;-66
2023/08/10 05:07:06;;;;;;;4.55;2.65;;;;;13.90;99018.00;;;;5056560;28;20041;-65
2023/08/10 05:09:32;;;;;;;7.38;3.83;;;;;13.90;99023.00;;;;5037957;28;20072;-65
2023/08/10 05:12:19;;;;;;;7.80;3.13;;;;;14.00;99025.00;;;;5071989;28;20063;-65
2023/08/10 05:14:45;;;;;;;8.98;3.00;;;;;14.20;99031.00;;;;5073046;28;20067;-66
2023/08/10 05:17:12;;;;;;;5.13;3.10;;;;;14.30;99025.00;;;;5057458;28;20485;-64
2023/08/10 05:19:38;;;;;;;6.43;3.25;;;;;14.40;99027.00;;;;5074751;28;20071;-65
2023/08/10 05:22:05;;;;;;;4.95;2.78;;;;;14.50;99026.00;;;;5057480;28;20051;-65
2023/08/10 05:24:32;;;;;;;5.38;2.50;;;;;14.60;99026.00;;;;5075155;28;20481;-65
2023/08/10 05:27:00;;;;;;;8.32;2.72;;;;;14.70;99029.00;;;;5057357;28;20045;-65
2023/08/10 05:29:27;;;;;;;4.32;2.72;;;;;14.70;99029.00;;;;5056962;28;20044;-65
2023/08/10 05:31:55;;;;;;;5.40;2.75;;;;;14.70;99032.00;;;;5074943;28;20127;-66
2023/08/10 05:34:21;;;;;;;3.63;2.45;;;;;14.70;99036.00;;;;5075008;28;20075;-64
2023/08/10 05:36:48;;;;;;;4.85;2.85;;;;;14.70;99035.00;;;;5056967;28;20494;-65
2023/08/10 05:39:15;;;;;;;8.23;3.72;;;;;14.80;99030.00;;;;5074516;28;20504;-64
2023/08/10 05:41:42;;;;;;;5.07;2.70;;;;;14.90;99030.00;;;;5074977;28;20493;-65
2023/08/10 05:44:08;;;;;;;3.40;2.40;;;;;14.90;99034.00;;;;5056829;28;20098;-65
2023/08/10 05:46:35;;;;;;;4.13;2.97;;;;;15.00;99037.00;;;;5056690;28;20067;-65
2023/08/10 05:49:01;;;;;;;6.13;3.35;;;;;15.00;99035.00;;;;5056161;28;20040;-65
2023/08/10 05:51:28;;;;;;;2.80;2.55;;;;;15.10;99036.00;;;;5074125;28;20072;-65
2023/08/10 05:53:54;;;;;;;4.03;3.15;;;;;15.10;99050.00;;;;5074331;28;20041;-65
2023/08/10 05:56:21;;;;;;;5.00;2.85;;;;;15.10;99047.00;;;;5074270;28;20044;-65
2023/08/10 05:58:48;;;;;;;5.50;2.75;;;;;15.20;99037.00;;;;5056473;28;20058;-65
2023/08/10 06:01:14;;;;;;;4.10;2.50;;;;;15.40;99038.00;;;;5074212;28;20043;-65
2023/08/10 06:03:41;;;;;;;4.65;2.42;;;;;15.50;99042.00;;;;5074059;28;20059;-66
2023/08/10 06:06:09;;;;;;;5.35;3.00;;;;;15.50;99039.00;;;;5056548;28;20477;-65
2023/08/10 06:08:36;;;;;;;6.43;2.60;;;;;15.50;99041.00;;;;5056134;28;20053;-65
2023/08/10 06:11:05;;;;;;;6.95;2.85;;;;;15.50;99056.00;;;;5073761;28;20048;-65
2023/08/10 06:13:32;;;;;;;3.88;3.30;;;;;15.60;99058.00;;;;5055894;28;20058;-65
2023/08/10 06:15:58;;;;;;;6.38;4.88;;;;;15.70;99056.00;;;;5073716;28;20511;-65
2023/08/10 06:18:25;;;;;;;5.25;4.30;;;;;15.90;99066.00;;;;5055696;28;20677;-65
2023/08/10 06:20:52;;;;;;;3.83;3.40;;;;;16.00;99052.00;;;;5073615;28;20042;-66
2023/08/10 06:23:18;;;;;;;4.75;2.92;;;;;16.10;99057.00;;;;5055799;28;20056;-65
2023/08/10 06:25:47;;;;;;;7.68;3.78;;;;;16.30;99058.00;;;;5055739;28;20400;-62
2023/08/10 06:28:14;;;;;;;7.43;4.40;;;;;16.50;99065.00;;;;5055807;28;20159;-61
2023/08/10 06:30:40;;;;;;;4.32;3.22;;;;;16.70;99066.00;;;;5073375;28;20508;-63
2023/08/10 06:33:07;;;;;;;7.70;3.30;;;;;16.70;99064.00;;;;5055909;28;20051;-63
2023/08/10 06:35:35;;;;;;;5.22;3.00;;;;;16.80;99067.00;;;;5073673;28;20094;-62
2023/08/10 06:38:05;;;;;;;9.15;3.08;;;;;16.80;99066.00;;;;5073428;28;20037;-61
2023/08/10 06:40:32;;;;;;;5.82;3.17;;;;;16.90;99069.00;;;;5073410;28;20072;-62
2023/08/10 06:42:59;;;;;;;6.88;3.30;;;;;16.90;99077.00;;;;5073186;28;20044;-62
2023/08/10 06:45:36;;;;;;;3.58;3.05;;;;;17.00;99072.00;;;;5056490;28;20078;-62
2023/08/10 06:48:03;;;;;;;3.95;3.05;;;;;17.20;99071.00;;;;5074592;28;20048;-62
2023/08/10 06:50:30;;;;;;;5.25;3.20;;;;;17.30;99074.00;;;;5055569;28;20452;-62
2023/08/10 06:52:57;;;;;;;4.25;3.30;;;;;17.40;99077.00;;;;5073178;28;20131;-62
2023/08/10 06:55:23;;;;;;;5.53;2.95;;;;;17.40;99080.00;;;;5055111;28;20083;-62
2023/08/10 06:57:50;;;;;;;5.20;2.92;;;;;17.50;99079.00;;;;5055350;28;20044;-62
2023/08/10 07:00:20;;;;;;;8.23;3.20;;;;;17.60;99072.00;;;;5072739;28;20055;-62
2023/08/10 07:02:53;;;;;;;8.20;3.97;;;;;17.80;99069.00;;;;5072779;28;20046;-63
2023/08/10 07:05:21;;;;;;;6.88;3.80;;;;;17.90;99076.00;;;;5072808;28;20521;-63
2023/08/10 07:07:49;;;;;;;7.45;3.30;;;;;17.90;99068.00;;;;5072852;28;20067;-63
2023/08/10 07:10:15;;;;;;;7.82;3.10;;;;;18.10;99077.00;;;;5072384;28;20041;-63
2023/08/10 07:12:43;;;;;;;3.67;3.28;;;;;18.10;99069.00;;;;5054991;28;20046;-63
2023/08/10 07:15:10;;;;;;;8.05;5.05;;;;;18.30;99074.00;;;;5073040;28;20040;-62
2023/08/10 07:17:37;;;;;;;10.27;7.88;;;;;18.30;99077.00;;;;5054906;28;20068;-62
2023/08/10 07:20:08;;;;;;;8.45;6.00;;;;;18.20;99074.00;;;;5072319;28;20040;-62
2023/08/10 07:22:35;;;;;;;14.98;7.68;;;;;18.30;99079.00;;;;5054821;28;20101;-62
2023/08/10 07:25:08;;;;;;;8.77;6.13;;;;;18.50;99070.00;;;;5055401;28;20043;-62
2023/08/10 07:27:35;;;;;;;9.02;4.65;;;;;18.60;99077.00;;;;5072575;28;20331;-62
2023/08/10 07:30:03;;;;;;;4.35;3.42;;;;;18.70;99075.00;;;;5054545;28;20045;-62
2023/08/10 07:32:30;;;;;;;6.82;3.53;;;;;18.80;99074.00;;;;5072433;28;20444;-63
2023/08/10 07:34:57;;;;;;;6.15;3.33;;;;;18.90;99071.00;;;;5071977;28;20044;-62
2023/08/10 07:37:24;;;;;;;5.88;3.25;;;;;19.00;99078.00;;;;5071791;28;20458;-63
2023/08/10 07:39:50;;;;;;;9.98;4.25;;;;;19.10;99079.00;;;;5072081;28;20040;-62
2023/08/10 07:42:17;;;;;;;6.85;3.38;;;;;19.20;99081.00;;;;5072488;28;20044;-64
2023/08/10 07:44:43;;;;;;;5.32;3.40;;;;;19.30;99070.00;;;;5072622;28;20044;-64
2023/08/10 07:47:11;;;;;;;4.85;2.70;;;;;19.40;99081.00;;;;5072638;28;20040;-65
2023/08/10 07:49:37;;;;;;;9.27;5.10;;;;;19.50;99073.00;;;;5072090;28;20044;-64
2023/08/10 07:52:04;;;;;;;11.00;3.58;;;;;19.40;99069.00;;;;5072217;28;20041;-64
2023/08/10 07:54:31;;;;;;;9.23;2.83;;;;;19.50;99064.00;;;;5072579;28;20127;-63
2023/08/10 07:56:58;;;;;;;4.10;2.70;;;;;19.60;99064.00;;;;5073808;28;20048;-64
2023/08/10 07:59:24;;;;;;;5.40;3.10;;;;;19.80;99066.00;;;;5054673;28;20048;-65
2023/08/10 08:01:51;;;;;;;8.45;3.85;;;;;19.90;99070.00;;;;5072791;28;20115;-65
2023/08/10 08:04:18;;;;;;;15.25;8.88;;;;;19.90;99069.00;;;;5072957;28;20489;-65
2023/08/10 08:06:44;;;;;;;4.82;3.20;;;;;20.00;99067.00;;;;5054597;28;20545;-65
2023/08/10 08:09:12;;;;;;;6.90;3.63;;;;;20.10;99055.00;;;;5072491;28;20490;-64
2023/08/10 08:11:39;;;;;;;6.57;2.72;;;;;20.10;99066.00;;;;5072236;28;20072;-67
2023/08/10 08:14:06;;;;;;;4.15;2.80;;;;;20.20;99060.00;;;;5054073;28;20143;-64
2023/08/10 08:16:32;;;;;;;5.15;2.65;;;;;20.40;99057.00;;;;5071964;28;20424;-64
2023/08/10 08:18:59;;;;;;;5.53;2.50;;;;;20.50;99054.00;;;;5053423;28;20056;-65
2023/08/10 08:21:28;;;;;;;6.55;2.15;;;;;20.60;99051.00;;;;5071885;28;20047;-64
2023/08/10 08:23:56;;;;;;;3.53;2.20;;;;;20.70;99059.00;;;;5054289;28;20485;-65
2023/08/10 08:26:24;;;;;;;5.88;2.28;;;;;20.90;99064.00;;;;5072317;28;20044;-64
2023/08/10 08:28:50;;;;;;;3.20;2.40;;;;;21.00;99060.00;;;;5071892;28;20105;-64
2023/08/10 08:31:17;;;;;;;3.70;2.28;;;;;21.10;99058.00;;;;5053788;28;20048;-66
2023/08/10 08:33:44;;;;;;;6.28;2.65;;;;;21.20;99053.00;;;;5053796;28;20052;-67
2023/08/10 08:36:10;;;;;;;2.60;2.40;;;;;21.30;99054.00;;;;5072040;28;20037;-64
2023/08/10 08:38:37;;;;;;;4.22;2.53;;;;;21.40;99051.00;;;;5054108;28;20462;-63
2023/08/10 08:41:06;;;;;;;4.28;2.50;;;;;21.50;99052.00;;;;5071592;28;20094;-63
2023/08/10 08:43:34;;;;;;;4.45;2.63;;;;;21.50;99053.00;;;;5053220;28;20059;-64
2023/08/10 08:46:01;;;;;;;2.53;2.30;;;;;21.60;99047.00;;;;5071726;28;20485;-63
2023/08/10 08:48:28;;;;;;;4.10;2.50;;;;;21.60;99055.00;;;;5072168;28;20452;-64
2023/08/10 08:50:56;;;;;;;2.67;1.80;;;;;21.60;99054.00;;;;5075428;28;20381;-64
2023/08/10 08:53:24;;;;;;;4.05;2.17;;;;;21.70;99054.00;;;;5075319;28;20051;-64
2023/08/10 08:55:50;;;;;;;3.35;2.15;;;;;21.60;99058.00;;;;5075365;28;20119;-63
2023/08/10 08:58:18;;;;;;;2.35;2.00;;;;;21.60;99044.00;;;;5075263;28;20063;-64
2023/08/10 09:00:52;;;;;;;2.63;2.20;;;;;21.70;99044.00;;;;5075179;28;20527;-64
2023/08/10 09:03:24;;;;;;;5.28;2.22;;;;;21.90;99043.00;;;;5057625;28;20494;-64
2023/08/10 09:05:51;;;;;;;3.60;2.15;;;;;21.90;99027.00;;;;5075250;28;20048;-63
2023/08/10 09:08:19;;;;;;;2.42;2.17;;;;;22.10;99035.00;;;;5075256;28;20051;-64
2023/08/10 09:10:46;;;;;;;2.15;1.90;;;;;22.20;99039.00;;;;5075058;28;20044;-64
2023/08/10 09:13:18;;;;;;;3.80;2.10;;;;;22.30;99033.00;;;;5056994;28;20080;-64
2023/08/10 09:15:45;;;;;;;2.72;2.47;;;;;22.30;99029.00;;;;5074807;28;20414;-64
2023/08/10 09:18:12;;;;;;;3.28;1.90;;;;;22.40;99020.00;;;;5074907;28;20053;-64
2023/08/10 09:20:39;;;;;;;2.03;1.85;;;;;22.50;99021.00;;;;5056702;28;20090;-64
2023/08/10 09:23:06;;;;;;;2.92;2.15;;;;;22.60;99016.00;;;;5056983;28;20055;-64
2023/08/10 09:25:37;;;;;;;1.80;1.60;;;;;22.60;99010.00;;;;5056923;28;20040;-64
2023/08/10 09:28:10;;;;;;;2.83;1.77;;;;;22.70;99016.00;;;;5057710;28;20132;-65
2023/08/10 09:30:37;;;;;;;2.58;1.67;;;;;22.80;99002.00;;;;5074421;28;20086;-64
2023/08/10 09:33:04;;;;;;;4.20;1.88;;;;;22.90;99004.00;;;;5040009;28;20072;-65
2023/08/10 09:35:31;;;;;;;3.38;2.03;;;;;22.90;99009.00;;;;5074700;28;20059;-65
2023/08/10 09:38:02;;;;;;;3.80;2.35;;;;;23.10;99011.00;;;;5056565;28;20497;-64
2023/08/10 09:40:29;;;;;;;2.88;1.83;;;;;23.10;99019.00;;;;5074370;28;20044;-65
2023/08/10 09:42:56;;;;;;;4.55;3.30;;;;;23.10;99017.00;;;;5039951;28;20155;-65
2023/08/10 09:45:23;;;;;;;2.40;1.50;;;;;23.10;99019.00;;;;5074525;28;20079;-65
2023/08/10 09:47:50;;;;;;;2.42;1.73;;;;;23.20;99014.00;;;;5074469;28;20619;-65
2023/08/10 09:50:17;;;;;;;2.42;1.67;;;;;23.30;99010.00;;;;5073789;28;20048;-65
2023/08/10 09:52:45;;;;;;;2.63;1.50;;;;;23.40;99015.00;;;;5056249;28;20049;-64
2023/08/10 09:55:12;;;;;;;3.42;1.73;;;;;23.50;99018.00;;;;5074480;28;20124;-65
2023/08/10 09:57:44;;;;;;;1.95;1.60;;;;;23.60;99013.00;;;;5056949;28;20044;-64
2023/08/10 10:00:17;;;;;;;4.82;1.45;;;;;23.70;99015.00;;;;5055708;28;20412;-65
2023/08/10 10:02:45;;;;;;;2.63;1.30;;;;;23.80;99016.00;;;;5039582;28;20056;-64
2023/08/10 10:05:16;;;;;;;2.45;1.40;;;;;23.80;99011.00;;;;5073843;28;20045;-65
2023/08/10 10:08:01;;;;;;;2.03;1.83;;;;;23.90;99011.00;;;;5041891;28;20139;-65
2023/08/10 10:10:29;;;;;;;1.65;1.55;;;;;24.00;99010.00;;;;5056573;28;20054;-64
2023/08/10 10:12:57;;;;;;;2.35;1.52;;;;;24.10;99009.00;;;;5058402;28;20106;-64
2023/08/10 10:15:24;;;;;;;2.78;1.55;;;;;24.20;99010.00;;;;5041347;28;20147;-64
2023/08/10 10:17:52;;;;;;;3.33;1.75;;;;;24.20;99011.00;;;;5074058;28;20049;-64
2023/08/10 10:20:20;;;;;;;2.03;1.80;;;;;24.30;99003.00;;;;5075273;28;20050;-64
2023/08/10 10:22:47;;;;;;;1.48;1.38;;;;;24.30;99009.00;;;;5059180;28;20040;-64
2023/08/10 10:25:17;;;;;;;2.90;1.92;;;;;24.30;99004.00;;;;5076747;28;20048;-64
2023/08/10 10:27:49;;;;;;;1.70;1.48;;;;;24.40;99010.00;;;;5075152;28;20514;-64
2023/08/10 10:30:17;;;;;;;2.17;1.52;;;;;24.50;98996.00;;;;5073791;28;20068;-63
2023/08/10 10:32:49;;;;;;;2.65;2.00;;;;;24.60;98993.00;;;;5073965;28;20080;-61
2023/08/10 10:35:24;;;;;;;4.28;1.75;;;;;24.60;98996.00;;;;5073426;28;20086;-61
2023/08/10 10:37:58;;;;;;;2.67;1.80;;;;;24.60;98992.00;;;;5073691;28;20052;-61
2023/08/10 10:40:26;;;;;;;4.38;1.52;;;;;24.60;98999.00;;;;5055272;28;20045;-62
2023/08/10 10:43:01;;;;;;;3.83;1.60;;;;;24.70;98996.00;;;;5073141;28;20032;-61
2023/08/10 10:45:33;;;;;;;2.35;1.83;;;;;24.70;98992.00;;;;5073219;28;20072;-61
2023/08/10 10:48:00;;;;;;;2.85;1.60;;;;;24.80;98988.00;;;;5073268;28;20041;-62
2023/08/10 10:50:30;;;;;;;2.70;1.52;;;;;24.90;98983.00;;;;5073250;28;20489;-61
2023/08/10 10:53:15;;;;;;;2.67;1.83;;;;;25.00;98979.00;;;;5073154;28;20041;-60
2023/08/10 10:55:44;;;;;;;2.40;1.70;;;;;24.90;98977.00;;;;5072251;28;20058;-60
2023/08/10 10:58:12;;;;;;;2.70;1.77;;;;;24.80;98982.00;;;;5073109;28;20041;-60
2023/08/10 11:00:41;;;;;;;2.03;1.63;;;;;24.80;98974.00;;;;5072822;28;20040;-61
2023/08/10 11:03:09;;;;;;;2.58;1.73;;;;;24.80;98962.00;;;;5072907;28;20044;-61
2023/08/10 11:05:36;;;;;;;2.72;1.73;;;;;24.80;98962.00;;;;5072913;28;20044;-60
2023/08/10 11:08:05;;;;;;;2.50;1.60;;;;;24.80;98971.00;;;;5072636;28;20072;-60
2023/08/10 11:10:36;;;;;;;1.73;1.63;;;;;24.80;98964.00;;;;5054651;28;20047;-60
2023/08/10 11:13:08;;;;;;;3.15;1.92;;;;;24.80;98962.00;;;;5071975;28;20115;-60
2023/08/10 11:15:38;;;;;;;2.40;1.63;;;;;24.90;98959.00;;;;5038161;28;20071;-61
2023/08/10 11:18:12;;;;;;;2.13;1.50;;;;;25.00;98947.00;;;;5072519;28;20048;-60
2023/08/10 11:20:46;;;;;;;2.03;1.70;;;;;25.10;98952.00;;;;5054854;28;20387;-60
2023/08/10 11:23:12;;;;;;;2.10;1.90;;;;;25.10;98949.00;;;;5054851;28;20053;-60
2023/08/10 11:25:57;;;;;;;2.10;1.67;;;;;25.20;98960.00;;;;5072576;28;20040;-60
2023/08/10 11:28:25;;;;;;;2.58;2.03;;;;;25.20;98960.00;;;;5072914;28;20387;-60
2023/08/10 11:30:52;;;;;;;2.58;1.90;;;;;25.30;98958.00;;;;5054616;28;20435;-61
2023/08/10 11:33:19;;;;;;;2.15;1.83;;;;;25.20;98966.00;;;;5072373;28;20067;-59
2023/08/10 11:35:50;;;;;;;2.33;1.98;;;;;25.30;98955.00;;;;5072539;28;20048;-59
2023/08/10 11:38:17;;;;;;;2.75;1.98;;;;;25.40;98947.00;;;;5054715;28;20127;-60
2023/08/10 11:40:44;;;;;;;1.75;1.60;;;;;25.50;98961.00;;;;5072253;28;20059;-60
2023/08/10 11:43:15;;;;;;;2.13;1.92;;;;;25.70;98955.00;;;;5072204;28;20043;-60
2023/08/10 11:45:42;;;;;;;1.73;1.63;;;;;25.80;98957.00;;;;5072393;28;20058;-60
2023/08/10 11:48:11;;;;;;;3.67;1.80;;;;;25.80;98953.00;;;;5072128;28;20071;-60
2023/08/10 11:50:39;;;;;;;2.00;1.80;;;;;25.90;98953.00;;;;5071909;28;20078;-62
2023/08/10 11:53:14;;;;;;;4.97;1.75;;;;;26.00;98952.00;;;;5054399;28;20127;-60
2023/08/10 11:55:48;;;;;;;2.13;1.83;;;;;25.90;98960.00;;;;5072032;28;20045;-59
2023/08/10 11:58:17;;;;;;;2.25;1.80;;;;;26.00;98957.00;;;;5072048;28;20453;-60
2023/08/10 12:00:49;;;;;;;2.08;1.88;;;;;26.10;98954.00;;;;5053888;28;20155;-60
2023/08/10 12:03:18;;;;;;;2.00;1.80;;;;;26.20;98963.00;;;;5071772;28;20040;-61
2023/08/10 12:06:07;;;;;;;2.13;1.67;;;;;26.40;98969.00;;;;5071924;28;20122;-66
2023/08/10 12:08:38;;;;;;;2.35;1.63;;;;;26.50;98961.00;;;;5054071;28;20105;-61
2023/08/10 12:11:08;;;;;;;1.70;1.60;;;;;26.50;98966.00;;;;5053820;28;20448;-60
2023/08/10 12:13:49;;;;;;;2.83;2.38;;;;;26.50;98981.00;;;;5071654;28;20045;-60
2023/08/10 12:16:17;;;;;;;1.80;1.70;;;;;26.50;98970.00;;;;5071722;28;20041;-60
2023/08/10 12:18:45;;;;;;;1.80;1.70;;;;;26.60;98970.00;;;;5071754;28;20455;-60
2023/08/10 12:21:12;;;;;;;1.75;1.65;;;;;26.60;98975.00;;;;5071563;28;20045;-60
2023/08/10 12:23:38;;;;;;;3.22;1.98;;;;;26.70;98972.00;;;;5072869;28;20067;-61